Pagrindinis puslapis
METAR-TAF:

METAR-TAF

Oro uostai :

Le Luc, Prancūzija

platuma: 43-23N, ilguma: 006-23E, Aukštis: 80 m

Dabartinis oras

Ataskaita buvo paskelbta 27 minutes, ne 19:30 UTC
Vėjas 2 kt iš Šiaurės Rytų
Temperatūra 21°C
Drėgmė 88%
Slėgis 1018 hPa
Matomumas 10 km arba daugiau

METAR: LFMC 191930Z AUTO 05002KT 9999 ////// 21/19 Q1018

Laikas: 21:57 (19:57 UTC)


TAF: trūkstamas

Orai ataskaitas ir orų prognozės (METAR, TAF).

turimą stotys yra geltonos ir raudonos taškus žemėlapyje.

Perkelti pele per norėdami pamatyti stoties vardą.

Tada spustelėkite, norėdami matyti oro stebėjimo ir prognozės.

Norėdami pakeisti žemėlapį: spustelėkite ant žalios mygtukų su juodo kryžiaus žemyn,; žalią mygtuką su brūkšneliu, jei norite nutolinti; arba žalių rodyklių gretimoms žemėlapius.


METAR-TAF: